Time;durP1;ratioP1;P1;durP2;ratioP2;P2;SDS_P1;SDS_P2;PMS_P1;PMS_P2;Temp;Humidity;BMP_temperature;BMP_pressure;BME280_temperature;BME280_humidity;BME280_pressure;Samples;Min_cycle;Max_cycle;Signal;HPM_P1;HPM_P2
2022/08/06 00:01:24;;;;;;;2.33;1.67;;;;;;;;;;5072198;28;20047;-78
2022/08/06 00:04:09;;;;;;;1.75;1.42;;;;;;;;;;5072930;28;20032;-68
2022/08/06 00:06:55;;;;;;;4.32;1.40;;;;;;;;;;5073863;28;20020;-70
2022/08/06 00:09:40;;;;;;;3.28;2.10;;;;;;;;;;5071004;28;20020;-69
2022/08/06 00:12:26;;;;;;;2.05;1.70;;;;;;;;;;5071678;28;20032;-68
2022/08/06 00:15:11;;;;;;;4.38;2.05;;;;;;;;;;5070184;28;20025;-67
2022/08/06 00:17:57;;;;;;;2.85;1.60;;;;;;;;;;5062937;28;20033;-68
2022/08/06 00:20:43;;;;;;;2.45;1.60;;;;;;;;;;5071971;28;20032;-68
2022/08/06 00:23:28;;;;;;;3.33;1.65;;;;;;;;;;5070370;28;20076;-69
2022/08/06 00:26:14;;;;;;;4.10;1.55;;;;;;;;;;5071320;28;20029;-78
2022/08/06 00:28:59;;;;;;;3.30;1.67;;;;;;;;;;5073512;28;20056;-78
2022/08/06 00:31:45;;;;;;;4.70;1.80;;;;;;;;;;5069402;28;20348;-77
2022/08/06 00:34:30;;;;;;;3.42;1.75;;;;;;;;;;5069935;28;20514;-77
2022/08/06 00:37:16;;;;;;;1.75;1.38;;;;;;;;;;5061530;28;20066;-78
2022/08/06 00:40:02;;;;;;;2.70;1.30;;;;;;;;;;5068923;28;20397;-78
2022/08/06 00:42:49;;;;;;;2.75;1.73;;;;;;;;;;5058577;28;20107;-69
2022/08/06 00:45:35;;;;;;;1.77;1.33;;;;;;;;;;5071279;28;20383;-69
2022/08/06 00:48:21;;;;;;;4.20;2.00;;;;;;;;;;5070965;28;20062;-69
2022/08/06 00:51:06;;;;;;;1.30;1.20;;;;;;;;;;5065796;28;20016;-68
2022/08/06 00:53:52;;;;;;;2.35;1.63;;;;;;;;;;5073916;28;20020;-67
2022/08/06 00:56:37;;;;;;;2.85;1.40;;;;;;;;;;5059638;28;20023;-69
2022/08/06 00:59:23;;;;;;;6.88;1.63;;;;;;;;;;5067436;28;20059;-68
2022/08/06 01:02:09;;;;;;;1.88;1.20;;;;;;;;;;5070173;28;20055;-70
2022/08/06 01:04:54;;;;;;;2.20;1.27;;;;;;;;;;5070541;28;20036;-69
2022/08/06 01:07:40;;;;;;;3.70;1.40;;;;;;;;;;5077805;28;20110;-69
2022/08/06 01:10:25;;;;;;;1.70;1.55;;;;;;;;;;5069788;28;20032;-68
2022/08/06 01:13:11;;;;;;;2.83;1.73;;;;;;;;;;5065714;28;20033;-67
2022/08/06 01:16:07;;;;;;;2.70;1.50;;;;;;;;;;5069388;28;20098;-68
2022/08/06 01:19:11;;;;;;;2.65;1.25;;;;;;;;;;5066878;28;20151;-75
2022/08/06 01:22:30;;;;;;;3.65;1.85;;;;;;;;;;5069632;28;20075;-79
2022/08/06 01:25:36;;;;;;;4.97;1.55;;;;;;;;;;5055690;28;20146;-81
2022/08/06 01:28:31;;;;;;;4.10;1.63;;;;;;;;;;5072536;28;20028;-80
2022/08/06 01:31:19;;;;;;;1.33;1.13;;;;;;;;;;5063070;28;20517;-80
2022/08/06 01:34:09;;;;;;;2.63;1.45;;;;;;;;;;5060646;28;20090;-81
2022/08/06 01:36:58;;;;;;;3.63;1.30;;;;;;;;;;5076066;28;20034;-68
2022/08/06 01:39:46;;;;;;;2.17;1.35;;;;;;;;;;5067805;28;20105;-81
2022/08/06 01:42:32;;;;;;;3.03;1.70;;;;;;;;;;5058173;28;20054;-80
2022/08/06 01:45:19;;;;;;;4.05;1.75;;;;;;;;;;5073862;28;20377;-80
2022/08/06 01:48:06;;;;;;;2.05;1.35;;;;;;;;;;5074682;28;20025;-81
2022/08/06 01:50:53;;;;;;;1.88;1.35;;;;;;;;;;5071619;28;20040;-80
2022/08/06 01:53:39;;;;;;;1.55;1.08;;;;;;;;;;5063994;28;20026;-80
2022/08/06 01:56:26;;;;;;;2.08;1.33;;;;;;;;;;5072991;28;20052;-74
2022/08/06 01:59:15;;;;;;;3.67;1.48;;;;;;;;;;5099523;22;20169;-72
2022/08/06 02:02:02;;;;;;;2.65;1.20;;;;;;;;;;5092393;28;20738;-73
2022/08/06 02:04:50;;;;;;;3.13;1.30;;;;;;;;;;5085409;28;20069;-72
2022/08/06 02:07:38;;;;;;;1.70;1.20;;;;;;;;;;5094451;28;20016;-70
2022/08/06 02:10:24;;;;;;;2.65;1.60;;;;;;;;;;5092802;28;20052;-71
2022/08/06 02:13:10;;;;;;;1.98;1.20;;;;;;;;;;5083171;28;20020;-68
2022/08/06 02:15:56;;;;;;;2.58;1.60;;;;;;;;;;5094313;28;20063;-77
2022/08/06 02:18:44;;;;;;;3.05;1.48;;;;;;;;;;5092973;28;20138;-77
2022/08/06 02:21:31;;;;;;;3.15;1.30;;;;;;;;;;5088033;28;20518;-77
2022/08/06 02:24:17;;;;;;;3.88;1.50;;;;;;;;;;5094842;28;20032;-77
2022/08/06 02:27:03;;;;;;;3.00;1.40;;;;;;;;;;5090826;28;20149;-78
2022/08/06 02:29:50;;;;;;;2.22;1.40;;;;;;;;;;5090209;28;20028;-77
2022/08/06 02:32:36;;;;;;;2.08;1.30;;;;;;;;;;5088223;28;20088;-70
2022/08/06 02:35:22;;;;;;;2.45;1.38;;;;;;;;;;5090989;28;20417;-72
2022/08/06 02:38:11;;;;;;;2.30;1.27;;;;;;;;;;5086972;28;20016;-71
2022/08/06 02:40:57;;;;;;;;;;;;;;;;;;5100778;28;20047;-71
2022/08/06 02:43:47;;;;;;;3.38;1.52;;;;;;;;;;5084502;28;20316;-72
2022/08/06 02:46:52;;;;;;;1.33;1.00;;;;;;;;;;5092010;28;20031;-71
2022/08/06 02:49:40;;;;;;;5.22;1.42;;;;;;;;;;5087151;28;20016;-72
2022/08/06 02:52:35;;;;;;;2.20;1.15;;;;;;;;;;5087392;28;20031;-78
2022/08/06 02:55:23;;;;;;;1.98;1.20;;;;;;;;;;5089376;28;20013;-67
2022/08/06 02:58:29;;;;;;;2.30;1.25;;;;;;;;;;5091387;28;20431;-68
2022/08/06 03:01:18;;;;;;;3.03;1.30;;;;;;;;;;5091413;28;20027;-69
2022/08/06 03:04:04;;;;;;;2.47;1.27;;;;;;;;;;5085741;28;20175;-68
2022/08/06 03:06:50;;;;;;;2.75;1.33;;;;;;;;;;5088077;28;20487;-68
2022/08/06 03:09:37;;;;;;;2.03;1.35;;;;;;;;;;5091799;28;20077;-77
2022/08/06 03:12:23;;;;;;;8.43;1.67;;;;;;;;;;5088072;28;20019;-71
2022/08/06 03:15:10;;;;;;;2.75;1.55;;;;;;;;;;5082344;28;20020;-72
2022/08/06 03:17:58;;;;;;;5.15;1.63;;;;;;;;;;5088896;28;20055;-70
2022/08/06 03:20:44;;;;;;;2.92;1.25;;;;;;;;;;5090716;28;20030;-72
2022/08/06 03:23:30;;;;;;;3.30;1.52;;;;;;;;;;5089461;28;20509;-71
2022/08/06 03:26:16;;;;;;;3.03;1.55;;;;;;;;;;5091715;28;20089;-72
2022/08/06 03:29:03;;;;;;;2.55;1.38;;;;;;;;;;5101879;28;20371;-70
2022/08/06 03:31:49;;;;;;;2.42;1.40;;;;;;;;;;5092815;28;20399;-72
2022/08/06 03:34:35;;;;;;;2.50;1.52;;;;;;;;;;5094000;28;20152;-71
2022/08/06 03:37:22;;;;;;;3.40;1.40;;;;;;;;;;5093686;28;20016;-72
2022/08/06 03:40:08;;;;;;;2.88;1.77;;;;;;;;;;5085270;27;20252;-72
2022/08/06 03:42:54;;;;;;;3.40;1.70;;;;;;;;;;5093152;28;20261;-72
2022/08/06 03:45:43;;;;;;;3.55;1.77;;;;;;;;;;5092104;28;20077;-69
2022/08/06 03:48:32;;;;;;;2.17;1.25;;;;;;;;;;5080648;28;20020;-78
2022/08/06 03:51:20;;;;;;;3.40;1.67;;;;;;;;;;5090390;28;20020;-77
2022/08/06 03:54:07;;;;;;;3.22;1.48;;;;;;;;;;5090562;28;20139;-79
2022/08/06 03:56:54;;;;;;;3.83;1.50;;;;;;;;;;5084083;28;20028;-77
2022/08/06 03:59:42;;;;;;;2.08;1.50;;;;;;;;;;5076790;28;20041;-77
2022/08/06 04:02:33;;;;;;;2.50;1.23;;;;;;;;;;5088113;28;20046;-77
2022/08/06 04:05:26;;;;;;;2.70;1.42;;;;;;;;;;5093349;27;20382;-77
2022/08/06 04:08:12;;;;;;;3.75;1.52;;;;;;;;;;5062557;28;20016;-67
2022/08/06 04:10:58;;;;;;;4.15;1.70;;;;;;;;;;5088992;28;20032;-67
2022/08/06 04:13:44;;;;;;;4.13;1.55;;;;;;;;;;5086711;28;20020;-66
2022/08/06 04:16:30;;;;;;;5.10;1.58;;;;;;;;;;5091976;28;20020;-68
2022/08/06 04:19:18;;;;;;;1.92;1.40;;;;;;;;;;5093082;28;20085;-67
2022/08/06 04:22:04;;;;;;;7.30;1.65;;;;;;;;;;5091997;28;20158;-72
2022/08/06 04:24:49;;;;;;;4.75;1.50;;;;;;;;;;5090170;28;20119;-77
2022/08/06 04:27:35;;;;;;;1.65;1.40;;;;;;;;;;5086687;28;20015;-74
2022/08/06 04:30:22;;;;;;;3.35;1.73;;;;;;;;;;5094321;28;20031;-74
2022/08/06 04:33:10;;;;;;;2.95;1.42;;;;;;;;;;5090522;28;20031;-73
2022/08/06 04:35:58;;;;;;;2.08;1.20;;;;;;;;;;5081326;28;20386;-73
2022/08/06 04:38:44;;;;;;;1.92;1.30;;;;;;;;;;5090740;28;20093;-74
2022/08/06 04:41:30;;;;;;;6.18;1.67;;;;;;;;;;5090012;28;20070;-77
2022/08/06 04:44:16;;;;;;;5.95;2.42;;;;;;;;;;5092307;27;20099;-73
2022/08/06 04:47:02;;;;;;;3.67;1.40;;;;;;;;;;5092482;28;20108;-73
2022/08/06 04:49:47;;;;;;;2.22;1.45;;;;;;;;;;5092335;28;20081;-73
2022/08/06 04:52:33;;;;;;;3.20;1.70;;;;;;;;;;5091879;28;20019;-73
2022/08/06 04:55:20;;;;;;;4.60;1.88;;;;;;;;;;5090002;28;20032;-74
2022/08/06 04:58:08;;;;;;;1.70;1.58;;;;;;;;;;5081866;28;20032;-73
2022/08/06 05:00:53;;;;;;;3.83;1.10;;;;;;;;;;5090689;28;20063;-74
2022/08/06 05:03:39;;;;;;;4.20;1.52;;;;;;;;;;5091469;28;20472;-76
2022/08/06 05:06:29;;;;;;;2.15;1.15;;;;;;;;;;5090503;28;20496;-76
2022/08/06 05:09:17;;;;;;;2.25;1.35;;;;;;;;;;5092275;28;20603;-75
2022/08/06 05:12:04;;;;;;;4.57;1.63;;;;;;;;;;5090101;28;20099;-76
2022/08/06 05:15:00;;;;;;;3.70;1.55;;;;;;;;;;5090578;28;20028;-76
2022/08/06 05:17:48;;;;;;;2.67;1.80;;;;;;;;;;5091993;28;20081;-76
2022/08/06 05:20:34;;;;;;;4.93;1.55;;;;;;;;;;5089739;28;20165;-75
2022/08/06 05:23:22;;;;;;;3.50;1.50;;;;;;;;;;5088641;28;20088;-77
2022/08/06 05:26:08;;;;;;;3.33;1.50;;;;;;;;;;5082812;28;20012;-76
2022/08/06 05:28:54;;;;;;;2.90;1.90;;;;;;;;;;5095214;28;20434;-75
2022/08/06 05:31:39;;;;;;;2.95;1.60;;;;;;;;;;5090944;28;20028;-76
2022/08/06 05:34:25;;;;;;;5.55;1.40;;;;;;;;;;5079431;28;20027;-76
2022/08/06 05:37:11;;;;;;;3.42;1.60;;;;;;;;;;5093225;28;20019;-72
2022/08/06 05:39:56;;;;;;;4.85;1.60;;;;;;;;;;5081570;28;21207;-72
2022/08/06 05:42:42;;;;;;;4.53;1.70;;;;;;;;;;5081740;28;20059;-72
2022/08/06 05:45:27;;;;;;;2.45;1.40;;;;;;;;;;5090474;28;20024;-74
2022/08/06 05:48:15;;;;;;;2.47;1.77;;;;;;;;;;5082284;28;20016;-72
2022/08/06 05:51:11;;;;;;;4.40;1.63;;;;;;;;;;5091933;28;20097;-72
2022/08/06 05:54:05;;;;;;;3.28;1.42;;;;;;;;;;5091742;28;20398;-67
2022/08/06 05:56:55;;;;;;;2.25;1.50;;;;;;;;;;5090983;28;20487;-76
2022/08/06 05:59:43;;;;;;;4.85;1.67;;;;;;;;;;5091702;28;20407;-68
2022/08/06 06:02:30;;;;;;;1.80;1.23;;;;;;;;;;5087946;28;20054;-67
2022/08/06 06:05:15;;;;;;;2.70;1.70;;;;;;;;;;5090546;28;20032;-66
2022/08/06 06:08:01;;;;;;;4.93;1.77;;;;;;;;;;5086640;28;20016;-68
2022/08/06 06:10:47;;;;;;;2.90;1.40;;;;;;;;;;5089693;28;20036;-67
2022/08/06 06:13:33;;;;;;;2.90;1.88;;;;;;;;;;5083337;28;20016;-68
2022/08/06 06:16:21;;;;;;;3.65;1.42;;;;;;;;;;5091803;28;20089;-71
2022/08/06 06:19:07;;;;;;;5.50;1.77;;;;;;;;;;5091768;28;20035;-70
2022/08/06 06:22:03;;;;;;;4.57;1.65;;;;;;;;;;5076733;28;20028;-71
2022/08/06 06:25:01;;;;;;;4.68;1.80;;;;;;;;;;5090085;28;20051;-72
2022/08/06 06:27:53;;;;;;;3.55;1.83;;;;;;;;;;5093254;28;20123;-72
2022/08/06 06:30:52;;;;;;;4.15;1.65;;;;;;;;;;5089990;28;20085;-71
2022/08/06 06:33:41;;;;;;;4.20;1.60;;;;;;;;;;5093898;28;20034;-75
2022/08/06 06:36:34;;;;;;;5.77;1.93;;;;;;;;;;5095425;28;20031;-76
2022/08/06 06:39:36;;;;;;;5.70;1.80;;;;;;;;;;5088613;28;20697;-77
2022/08/06 06:42:31;;;;;;;1.58;1.40;;;;;;;;;;5092931;28;20025;-76
2022/08/06 06:45:19;;;;;;;3.83;1.60;;;;;;;;;;5096727;28;20027;-77
2022/08/06 06:48:16;;;;;;;2.40;1.63;;;;;;;;;;5092504;28;20023;-76
2022/08/06 06:51:05;;;;;;;3.22;1.70;;;;;;;;;;5093817;28;20016;-78
2022/08/06 06:53:51;;;;;;;5.57;1.55;;;;;;;;;;5093297;28;20020;-77
2022/08/06 06:56:43;;;;;;;4.15;1.70;;;;;;;;;;5093111;28;20050;-78
2022/08/06 06:59:41;;;;;;;2.97;1.50;;;;;;;;;;5092504;28;20490;-78
2022/08/06 07:02:30;;;;;;;4.63;1.63;;;;;;;;;;5089150;28;20020;-78
2022/08/06 07:05:15;;;;;;;3.70;1.48;;;;;;;;;;5086269;28;20028;-78
2022/08/06 07:08:02;;;;;;;1.95;1.63;;;;;;;;;;5078588;28;20368;-77
2022/08/06 07:10:49;;;;;;;5.68;1.75;;;;;;;;;;5092253;28;20024;-74
2022/08/06 07:13:36;;;;;;;3.05;1.60;;;;;;;;;;5081570;28;20031;-74
2022/08/06 07:16:22;;;;;;;4.32;1.77;;;;;;;;;;5091268;28;20024;-74
2022/08/06 07:19:08;;;;;;;3.15;1.63;;;;;;;;;;5084583;28;20080;-74
2022/08/06 07:21:55;;;;;;;4.57;2.00;;;;;;;;;;5091029;28;20020;-75
2022/08/06 07:24:41;;;;;;;3.80;1.58;;;;;;;;;;5089312;28;20055;-74
2022/08/06 07:27:30;;;;;;;3.85;1.60;;;;;;;;;;5089049;28;20128;-77
2022/08/06 07:30:17;;;;;;;3.20;1.63;;;;;;;;;;5092529;28;20462;-72
2022/08/06 07:33:04;;;;;;;6.45;1.95;;;;;;;;;;5092913;27;20036;-73
2022/08/06 07:35:51;;;;;;;6.22;1.63;;;;;;;;;;5089926;28;20020;-72
2022/08/06 07:38:40;;;;;;;3.17;1.60;;;;;;;;;;5101136;28;20028;-73
2022/08/06 07:41:26;;;;;;;6.65;1.73;;;;;;;;;;5091581;27;20035;-73
2022/08/06 07:44:12;;;;;;;3.83;1.48;;;;;;;;;;5087998;28;20028;-73
2022/08/06 07:46:59;;;;;;;5.00;1.50;;;;;;;;;;5093438;28;20503;-68
2022/08/06 07:49:45;;;;;;;3.53;1.67;;;;;;;;;;5088309;28;20508;-74
2022/08/06 07:52:31;;;;;;;2.45;1.33;;;;;;;;;;5098644;28;20119;-74
2022/08/06 07:55:17;;;;;;;4.60;1.95;;;;;;;;;;5093610;28;20146;-74
2022/08/06 07:58:04;;;;;;;2.90;1.90;;;;;;;;;;5084624;28;20028;-74
2022/08/06 08:00:50;;;;;;;3.15;2.20;;;;;;;;;;5088542;28;20058;-75
2022/08/06 08:06:40;;;;;;;4.30;2.03;;;;;;;;;;5078403;28;20555;-75
2022/08/06 08:09:26;;;;;;;2.25;1.58;;;;;;;;;;5080456;28;20040;-74
2022/08/06 08:12:13;;;;;;;2.00;1.35;;;;;;;;;;5092651;28;20107;-74
2022/08/06 08:14:59;;;;;;;2.70;1.85;;;;;;;;;;5077678;28;20039;-74
2022/08/06 08:17:45;;;;;;;4.30;1.45;;;;;;;;;;5089777;28;20111;-73
2022/08/06 08:20:32;;;;;;;2.47;1.45;;;;;;;;;;5093621;28;20032;-74
2022/08/06 08:23:17;;;;;;;2.75;1.38;;;;;;;;;;5084703;28;20600;-74
2022/08/06 08:26:03;;;;;;;4.30;2.20;;;;;;;;;;5091350;28;20507;-77
2022/08/06 08:28:49;;;;;;;3.53;1.65;;;;;;;;;;5104063;27;20032;-77
2022/08/06 08:31:34;;;;;;;3.45;1.30;;;;;;;;;;5091638;28;20043;-77
2022/08/06 08:34:20;;;;;;;2.70;1.33;;;;;;;;;;5091918;28;20081;-78
2022/08/06 08:37:05;;;;;;;5.03;1.70;;;;;;;;;;5091798;28;20012;-77
2022/08/06 08:39:51;;;;;;;2.78;1.10;;;;;;;;;;5092878;27;20036;-77
2022/08/06 08:42:42;;;;;;;5.07;1.70;;;;;;;;;;5089593;28;20312;-74
2022/08/06 08:45:28;;;;;;;3.42;1.63;;;;;;;;;;5089828;28;20053;-68
2022/08/06 08:48:14;;;;;;;4.10;1.40;;;;;;;;;;5091397;28;20028;-68
2022/08/06 08:51:00;;;;;;;3.75;1.33;;;;;;;;;;5091640;28;20031;-67
2022/08/06 08:53:53;;;;;;;4.50;1.90;;;;;;;;;;5090257;28;20034;-68
2022/08/06 08:56:38;;;;;;;2.20;1.67;;;;;;;;;;5081233;28;20027;-66
2022/08/06 08:59:24;;;;;;;4.38;1.65;;;;;;;;;;5089854;28;20133;-73
2022/08/06 09:02:11;;;;;;;2.53;1.38;;;;;;;;;;5091683;28;20039;-69
2022/08/06 09:04:57;;;;;;;3.92;1.60;;;;;;;;;;5088987;28;20024;-68
2022/08/06 09:07:43;;;;;;;3.70;1.63;;;;;;;;;;5085280;28;20024;-70
2022/08/06 09:10:29;;;;;;;2.47;1.60;;;;;;;;;;5099080;28;20099;-69
2022/08/06 09:13:15;;;;;;;5.10;1.80;;;;;;;;;;5085132;28;20043;-68
2022/08/06 09:16:00;;;;;;;5.13;1.80;;;;;;;;;;5091113;28;20455;-68
2022/08/06 09:18:46;;;;;;;3.53;1.55;;;;;;;;;;5086910;28;20127;-78
2022/08/06 09:21:32;;;;;;;2.58;1.45;;;;;;;;;;5089622;28;20104;-67
2022/08/06 09:24:18;;;;;;;2.80;1.65;;;;;;;;;;5091225;28;20020;-67
2022/08/06 09:27:06;;;;;;;4.20;1.40;;;;;;;;;;5090393;28;20024;-66
2022/08/06 09:29:53;;;;;;;2.20;1.40;;;;;;;;;;5084320;28;20020;-67
2022/08/06 09:32:43;;;;;;;4.18;1.70;;;;;;;;;;5087443;28;20035;-68
2022/08/06 09:35:29;;;;;;;4.63;1.67;;;;;;;;;;5089005;28;20539;-79
2022/08/06 09:38:15;;;;;;;4.93;1.88;;;;;;;;;;5091318;28;20482;-77
2022/08/06 09:41:08;;;;;;;3.22;1.50;;;;;;;;;;5092506;28;20116;-77
2022/08/06 09:43:55;;;;;;;5.75;2.00;;;;;;;;;;5090336;28;20403;-78
2022/08/06 09:46:44;;;;;;;5.90;1.80;;;;;;;;;;5089297;28;20419;-76
2022/08/06 09:49:42;;;;;;;3.45;1.77;;;;;;;;;;5080147;28;20454;-77
2022/08/06 09:52:28;;;;;;;3.15;2.33;;;;;;;;;;5080769;28;20020;-76
2022/08/06 09:55:27;;;;;;;3.70;1.52;;;;;;;;;;5090175;28;20046;-78
2022/08/06 09:58:13;;;;;;;4.55;1.65;;;;;;;;;;5083666;28;20028;-68
2022/08/06 10:01:12;;;;;;;4.13;1.52;;;;;;;;;;5088676;28;20052;-66
2022/08/06 10:03:58;;;;;;;4.32;1.83;;;;;;;;;;5083569;28;20475;-67
2022/08/06 10:06:51;;;;;;;4.03;1.30;;;;;;;;;;5091779;28;20965;-68
2022/08/06 10:09:49;;;;;;;3.22;1.92;;;;;;;;;;5078922;28;20029;-66
2022/08/06 10:12:35;;;;;;;5.78;2.00;;;;;;;;;;5086892;28;20411;-70
2022/08/06 10:15:30;;;;;;;6.55;1.90;;;;;;;;;;5096002;28;20024;-77
2022/08/06 10:18:34;;;;;;;2.20;1.45;;;;;;;;;;5084767;28;20015;-77
2022/08/06 10:21:24;;;;;;;2.72;1.73;;;;;;;;;;5081105;28;20483;-76
2022/08/06 10:24:11;;;;;;;2.55;1.70;;;;;;;;;;5093951;28;20028;-76
2022/08/06 10:26:57;;;;;;;4.65;1.70;;;;;;;;;;5094061;28;20028;-77
2022/08/06 10:29:50;;;;;;;3.55;1.48;;;;;;;;;;5103030;28;20074;-77
2022/08/06 10:32:51;;;;;;;5.88;2.33;;;;;;;;;;5088696;28;20024;-73
2022/08/06 10:35:37;;;;;;;3.67;1.90;;;;;;;;;;5091536;28;20042;-77
2022/08/06 10:38:25;;;;;;;2.75;1.60;;;;;;;;;;5091620;28;20099;-76
2022/08/06 10:41:11;;;;;;;2.30;1.65;;;;;;;;;;5094197;28;20028;-74
2022/08/06 10:43:57;;;;;;;2.97;1.45;;;;;;;;;;5093658;27;20096;-75
2022/08/06 10:46:43;;;;;;;1.67;1.50;;;;;;;;;;5104925;28;20031;-77
2022/08/06 10:49:29;;;;;;;3.00;1.48;;;;;;;;;;5080165;28;20073;-73
2022/08/06 10:52:15;;;;;;;3.25;1.67;;;;;;;;;;5093555;28;20107;-66
2022/08/06 10:55:03;;;;;;;5.75;1.80;;;;;;;;;;5095394;28;20028;-68
2022/08/06 10:57:49;;;;;;;6.45;1.90;;;;;;;;;;5084103;27;20020;-67
2022/08/06 11:00:35;;;;;;;3.83;1.45;;;;;;;;;;5095078;28;20060;-66
2022/08/06 11:03:20;;;;;;;3.58;1.73;;;;;;;;;;5087260;27;20120;-67
2022/08/06 11:06:12;;;;;;;3.47;1.42;;;;;;;;;;5093381;28;20085;-69
2022/08/06 11:09:05;;;;;;;2.85;1.58;;;;;;;;;;5093481;27;20463;-67
2022/08/06 11:12:12;;;;;;;4.38;1.80;;;;;;;;;;5105398;28;20028;-73
2022/08/06 11:14:59;;;;;;;2.95;1.80;;;;;;;;;;5090164;27;20439;-71
2022/08/06 11:17:54;;;;;;;3.42;1.52;;;;;;;;;;5084675;28;20062;-72
2022/08/06 11:20:42;;;;;;;2.70;1.42;;;;;;;;;;5087825;28;20039;-74
2022/08/06 11:23:28;;;;;;;4.20;1.52;;;;;;;;;;5091666;28;20028;-73
2022/08/06 11:26:31;;;;;;;4.03;1.40;;;;;;;;;;5080848;28;20030;-72
2022/08/06 11:29:17;;;;;;;4.43;1.50;;;;;;;;;;5098640;28;20032;-74
2022/08/06 11:32:02;;;;;;;2.58;1.70;;;;;;;;;;5091567;28;20027;-76
2022/08/06 11:34:48;;;;;;;4.00;1.73;;;;;;;;;;5100154;28;20280;-77
2022/08/06 11:37:43;;;;;;;2.70;1.50;;;;;;;;;;5092581;28;20023;-74
2022/08/06 11:40:48;;;;;;;3.33;1.80;;;;;;;;;;5095830;28;20372;-77
2022/08/06 11:43:40;;;;;;;3.05;1.50;;;;;;;;;;5086637;28;20067;-74
2022/08/06 11:46:27;;;;;;;3.60;1.50;;;;;;;;;;5104392;28;20428;-72
2022/08/06 11:49:14;;;;;;;3.55;1.73;;;;;;;;;;5083012;28;20055;-73
2022/08/06 11:51:59;;;;;;;3.65;1.70;;;;;;;;;;5086703;28;20486;-72
2022/08/06 11:54:48;;;;;;;2.22;1.40;;;;;;;;;;5092663;28;20055;-73
2022/08/06 11:57:33;;;;;;;5.40;1.65;;;;;;;;;;5086511;28;20027;-72
2022/08/06 12:00:20;;;;;;;3.35;1.52;;;;;;;;;;5092902;28;20052;-72
2022/08/06 12:03:06;;;;;;;3.83;1.58;;;;;;;;;;5090061;28;20020;-76
2022/08/06 12:05:52;;;;;;;2.97;1.70;;;;;;;;;;5082229;28;20033;-67
2022/08/06 12:08:38;;;;;;;2.70;1.40;;;;;;;;;;5086897;28;20103;-68
2022/08/06 12:11:24;;;;;;;3.45;1.80;;;;;;;;;;5091330;28;20081;-68
2022/08/06 12:14:29;;;;;;;3.50;1.80;;;;;;;;;;5087956;28;20047;-68
2022/08/06 12:17:15;;;;;;;3.05;1.65;;;;;;;;;;5075631;28;20039;-66
2022/08/06 12:20:00;;;;;;;4.15;1.70;;;;;;;;;;5097548;28;20028;-69
2022/08/06 12:22:47;;;;;;;2.72;1.65;;;;;;;;;;5090405;28;20472;-69
2022/08/06 12:25:33;;;;;;;2.97;1.58;;;;;;;;;;5091846;28;20077;-76
2022/08/06 12:28:20;;;;;;;5.18;1.95;;;;;;;;;;5090595;28;20483;-79
2022/08/06 12:31:05;;;;;;;3.70;1.38;;;;;;;;;;5091916;28;20028;-76
2022/08/06 12:33:51;;;;;;;4.97;1.65;;;;;;;;;;5088137;28;20320;-77
2022/08/06 12:36:37;;;;;;;2.88;1.70;;;;;;;;;;5088116;28;20450;-76
2022/08/06 12:40:23;;;;;;;3.92;1.60;;;;;;;;;;5084610;28;20020;-72
2022/08/06 12:42:28;;;;;;;6.00;1.98;;;;;;;;;;5087758;28;20070;-66
2022/08/06 12:45:19;;;;;;;1.80;1.65;;;;;;;;;;5092375;28;20462;-66
2022/08/06 12:48:06;;;;;;;3.13;1.75;;;;;;;;;;5081026;28;20028;-66
2022/08/06 12:51:13;;;;;;;4.10;1.55;;;;;;;;;;5090221;28;20028;-65
2022/08/06 12:54:00;;;;;;;2.47;1.42;;;;;;;;;;5088871;28;20024;-66
2022/08/06 12:56:45;;;;;;;2.45;1.70;;;;;;;;;;5083446;28;20028;-66
2022/08/06 12:59:31;;;;;;;2.03;1.27;;;;;;;;;;5093646;28;20044;-66
2022/08/06 13:02:22;;;;;;;3.50;1.88;;;;;;;;;;5078523;28;20063;-72
2022/08/06 13:05:08;;;;;;;5.03;1.80;;;;;;;;;;5083954;28;20016;-71
2022/08/06 13:07:54;;;;;;;4.30;1.55;;;;;;;;;;5090537;28;20028;-70
2022/08/06 13:10:46;;;;;;;2.17;1.50;;;;;;;;;;5077600;28;20031;-73
2022/08/06 13:13:38;;;;;;;2.45;1.80;;;;;;;;;;5085737;28;20089;-72
2022/08/06 13:16:24;;;;;;;5.80;1.73;;;;;;;;;;5090192;28;20103;-74
2022/08/06 13:19:14;;;;;;;2.85;1.58;;;;;;;;;;5083583;28;20036;-67
2022/08/06 13:22:00;;;;;;;4.00;1.40;;;;;;;;;;5078796;28;20012;-67
2022/08/06 13:24:46;;;;;;;2.65;1.55;;;;;;;;;;5092688;28;20161;-68
2022/08/06 13:27:32;;;;;;;2.88;1.45;;;;;;;;;;5083524;28;20023;-67
2022/08/06 13:30:18;;;;;;;3.30;1.67;;;;;;;;;;5090269;28;20459;-68
2022/08/06 13:33:11;;;;;;;4.72;1.90;;;;;;;;;;5092386;28;20475;-68
2022/08/06 13:36:06;;;;;;;4.88;1.52;;;;;;;;;;5080082;28;20031;-64
2022/08/06 13:38:52;;;;;;;3.50;1.63;;;;;;;;;;5087331;28;20042;-70
2022/08/06 13:41:38;;;;;;;2.22;1.90;;;;;;;;;;5092471;28;20422;-70
2022/08/06 13:44:40;;;;;;;4.40;1.70;;;;;;;;;;5088186;28;20016;-70
2022/08/06 13:47:27;;;;;;;1.52;1.33;;;;;;;;;;5094222;28;20031;-68
2022/08/06 13:50:13;;;;;;;3.20;1.65;;;;;;;;;;5085568;27;20029;-69
2022/08/06 13:52:59;;;;;;;1.50;1.40;;;;;;;;;;5099092;28;20567;-76
2022/08/06 13:55:44;;;;;;;4.78;1.85;;;;;;;;;;5080117;28;20039;-75
2022/08/06 13:58:30;;;;;;;4.22;1.48;;;;;;;;;;5089730;28;20035;-73
2022/08/06 14:01:16;;;;;;;2.90;1.50;;;;;;;;;;5098764;27;20390;-74
2022/08/06 14:04:01;;;;;;;3.75;1.85;;;;;;;;;;5083001;28;20020;-76
2022/08/06 14:06:51;;;;;;;6.30;2.25;;;;;;;;;;5098772;28;20102;-73
2022/08/06 14:09:36;;;;;;;2.47;1.70;;;;;;;;;;5093841;28;20020;-73
2022/08/06 14:12:22;;;;;;;8.27;1.40;;;;;;;;;;5089418;28;20131;-76
2022/08/06 14:15:08;;;;;;;6.03;2.05;;;;;;;;;;5090380;28;20032;-67
2022/08/06 14:17:53;;;;;;;3.97;1.67;;;;;;;;;;5093792;28;20036;-69
2022/08/06 14:20:39;;;;;;;4.07;1.30;;;;;;;;;;5092626;28;20107;-69
2022/08/06 14:23:25;;;;;;;2.40;1.67;;;;;;;;;;5091871;28;20028;-68
2022/08/06 14:26:10;;;;;;;3.38;1.55;;;;;;;;;;5092972;28;20056;-68
2022/08/06 14:28:56;;;;;;;5.57;1.73;;;;;;;;;;5101955;28;20028;-68
2022/08/06 14:31:42;;;;;;;2.80;1.42;;;;;;;;;;5094141;28;20024;-78
2022/08/06 14:34:27;;;;;;;4.68;1.45;;;;;;;;;;5083642;28;20027;-74
2022/08/06 14:37:13;;;;;;;2.55;1.55;;;;;;;;;;5093455;28;20399;-73
2022/08/06 14:39:58;;;;;;;3.30;1.83;;;;;;;;;;5087332;28;20501;-74
2022/08/06 14:45:48;;;;;;;5.68;1.63;;;;;;;;;;5093066;28;20028;-72
2022/08/06 14:48:34;;;;;;;1.77;1.30;;;;;;;;;;5097867;28;20020;-67
2022/08/06 14:51:19;;;;;;;6.20;1.75;;;;;;;;;;5091584;28;20085;-73
2022/08/06 14:54:05;;;;;;;3.30;1.30;;;;;;;;;;5095182;28;20066;-73
2022/08/06 14:56:50;;;;;;;1.98;1.30;;;;;;;;;;5090888;28;20032;-73
2022/08/06 14:59:36;;;;;;;2.53;1.23;;;;;;;;;;5089553;28;20133;-73
2022/08/06 15:02:23;;;;;;;5.55;1.52;;;;;;;;;;5085648;27;20467;-73
2022/08/06 15:05:09;;;;;;;2.85;1.48;;;;;;;;;;5095107;28;20036;-72
2022/08/06 15:07:55;;;;;;;2.80;1.30;;;;;;;;;;5093420;28;20471;-67
2022/08/06 15:10:40;;;;;;;5.40;1.48;;;;;;;;;;5094008;28;20077;-70
2022/08/06 15:13:26;;;;;;;3.55;1.38;;;;;;;;;;5087482;28;20023;-71
2022/08/06 15:16:11;;;;;;;3.45;1.45;;;;;;;;;;5091163;28;20429;-72
2022/08/06 15:18:58;;;;;;;3.17;1.42;;;;;;;;;;5093790;28;20028;-71
2022/08/06 15:21:44;;;;;;;5.07;1.40;;;;;;;;;;5089113;28;20475;-71
2022/08/06 15:24:31;;;;;;;3.28;1.23;;;;;;;;;;5093259;28;20020;-72
2022/08/06 15:27:20;;;;;;;2.08;1.30;;;;;;;;;;5096045;28;20020;-73
2022/08/06 15:30:05;;;;;;;2.58;1.33;;;;;;;;;;5095265;28;20077;-77
2022/08/06 15:32:52;;;;;;;2.42;1.42;;;;;;;;;;5103964;28;20491;-78
2022/08/06 15:35:39;;;;;;;1.88;1.13;;;;;;;;;;5090309;28;20097;-78
2022/08/06 15:38:26;;;;;;;1.83;1.30;;;;;;;;;;5093988;27;20093;-79
2022/08/06 15:41:11;;;;;;;4.13;1.23;;;;;;;;;;5083965;28;20081;-78
2022/08/06 15:43:57;;;;;;;2.38;1.20;;;;;;;;;;5092159;28;20028;-71
2022/08/06 15:46:43;;;;;;;3.88;1.55;;;;;;;;;;5099281;28;20024;-68
2022/08/06 15:49:28;;;;;;;2.55;1.15;;;;;;;;;;5091665;28;20028;-67
2022/08/06 15:52:14;;;;;;;4.13;1.45;;;;;;;;;;5089019;28;20372;-66
2022/08/06 15:55:03;;;;;;;2.67;1.20;;;;;;;;;;5090100;28;20496;-68
2022/08/06 15:57:49;;;;;;;2.80;1.40;;;;;;;;;;5093364;28;20021;-67
2022/08/06 16:00:35;;;;;;;2.45;1.30;;;;;;;;;;5091663;28;20052;-66
2022/08/06 16:03:21;;;;;;;1.50;1.15;;;;;;;;;;5089812;28;20024;-67
2022/08/06 16:06:06;;;;;;;5.70;1.50;;;;;;;;;;5090466;28;20020;-67
2022/08/06 16:08:53;;;;;;;1.00;0.90;;;;;;;;;;5092966;28;20027;-67
2022/08/06 16:11:38;;;;;;;2.53;1.42;;;;;;;;;;5092128;28;20040;-68
2022/08/06 16:14:24;;;;;;;1.23;1.13;;;;;;;;;;5089512;28;20355;-67
2022/08/06 16:17:10;;;;;;;2.42;1.10;;;;;;;;;;5089465;28;20016;-67
2022/08/06 16:19:55;;;;;;;3.03;1.50;;;;;;;;;;5092149;28;20063;-67
2022/08/06 16:22:41;;;;;;;3.05;1.20;;;;;;;;;;5093701;27;20483;-70
2022/08/06 16:25:27;;;;;;;2.75;1.42;;;;;;;;;;5091281;28;20466;-72
2022/08/06 16:28:12;;;;;;;2.20;1.00;;;;;;;;;;5102609;28;20106;-72
2022/08/06 16:30:58;;;;;;;2.33;1.30;;;;;;;;;;5079490;28;20024;-73
2022/08/06 16:33:43;;;;;;;4.80;1.17;;;;;;;;;;5094440;28;20077;-73
2022/08/06 16:36:29;;;;;;;1.60;0.95;;;;;;;;;;5091017;28;20088;-74
2022/08/06 16:39:15;;;;;;;2.03;0.98;;;;;;;;;;5090928;28;20028;-66
2022/08/06 16:42:01;;;;;;;2.28;1.20;;;;;;;;;;5091680;28;20039;-72
2022/08/06 16:44:46;;;;;;;2.58;1.15;;;;;;;;;;5081957;28;20052;-72
2022/08/06 16:47:32;;;;;;;1.50;1.00;;;;;;;;;;5089167;28;20475;-72
2022/08/06 16:50:18;;;;;;;3.05;1.23;;;;;;;;;;5086985;28;20032;-72
2022/08/06 16:53:06;;;;;;;3.72;1.60;;;;;;;;;;5079031;28;20127;-73